チタ の空港の天気 - METARとTAF

チタ・カダラ空港 ( UIAA / HTA ) - ロシア チタ
飛行場実況気象(Metar)
観測時間06/24 18:30 YAKT (06/24 09:30 UTC)
風向・風速北東 4m/s
視程10km以上
天気現象
なし
気温26℃
湿度37%
気圧1007hPa
METARUIAA 240930Z 05004MPS 9999 NSC 26/10 Q1007 R29/CLRD70 NOSIG RMK QFE697/0929
過去の天気等 Google飛行場航空写真 Wunderground天気予報

過去48時間のMETAR

飛行場予報(TAF)
発表時間: 6/24 17:00 YAKT (6/24 08:00 UTC)
予報対象時間: 24日18時 YAKT ~ 25日18時 YAKT
風向・風速北北東 3m/s 瞬間風速 8m/s
視程10km以上
全天の4割程度の積乱雲 雲底高度 1220m
TAF UIAA 240800Z 2409/2509 02003G08MPS 9999 SCT040CB